sensor_id;sensor_type;location;lat;lon;timestamp;pressure;altitude;pressure_sealevel;temperature;humidity
63903;BME280;50072;50.678;13.938;2023-02-11T00:00:39;101301.75;;;-2.63;90.11
63903;BME280;50072;50.678;13.938;2023-02-11T00:03:23;101313.44;;;-2.73;90.83
63903;BME280;50072;50.678;13.938;2023-02-11T00:06:00;101315.97;;;-2.74;90.98
63903;BME280;50072;50.678;13.938;2023-02-11T00:08:27;101319.88;;;-2.83;91.18
63903;BME280;50072;50.678;13.938;2023-02-11T00:10:55;101303.38;;;-2.97;91.52
63903;BME280;50072;50.678;13.938;2023-02-11T00:13:23;101296.16;;;-3.01;92.60
63903;BME280;50072;50.678;13.938;2023-02-11T00:15:53;101293.56;;;-3.01;92.85
63903;BME280;50072;50.678;13.938;2023-02-11T00:18:19;101295.19;;;-3.03;92.88
63903;BME280;50072;50.678;13.938;2023-02-11T00:20:45;101286.94;;;-3.10;93.21
63903;BME280;50072;50.678;13.938;2023-02-11T00:23:11;101284.94;;;-3.15;93.12
63903;BME280;50072;50.678;13.938;2023-02-11T00:25:39;101288.78;;;-3.08;93.10
63903;BME280;50072;50.678;13.938;2023-02-11T00:28:05;101294.31;;;-3.03;92.12
63903;BME280;50072;50.678;13.938;2023-02-11T00:30:31;101290.34;;;-3.12;92.41
63903;BME280;50072;50.678;13.938;2023-02-11T00:32:57;101286.47;;;-3.18;92.70
63903;BME280;50072;50.678;13.938;2023-02-11T00:35:23;101288.22;;;-3.19;92.27
63903;BME280;50072;50.678;13.938;2023-02-11T00:37:48;101292.81;;;-3.15;92.78
63903;BME280;50072;50.678;13.938;2023-02-11T00:40:14;101287.00;;;-3.09;92.08
63903;BME280;50072;50.678;13.938;2023-02-11T00:42:41;101292.72;;;-3.16;92.27
63903;BME280;50072;50.678;13.938;2023-02-11T00:45:07;101279.63;;;-3.16;92.28
63903;BME280;50072;50.678;13.938;2023-02-11T00:47:34;101277.19;;;-3.13;92.40
63903;BME280;50072;50.678;13.938;2023-02-11T00:50:02;101282.81;;;-3.22;92.52
63903;BME280;50072;50.678;13.938;2023-02-11T00:52:30;101282.03;;;-3.19;92.53
63903;BME280;50072;50.678;13.938;2023-02-11T00:54:57;101275.84;;;-3.21;92.70
63903;BME280;50072;50.678;13.938;2023-02-11T00:57:22;101286.94;;;-3.10;92.51
63903;BME280;50072;50.678;13.938;2023-02-11T00:59:48;101265.78;;;-3.14;92.76
63903;BME280;50072;50.678;13.938;2023-02-11T01:02:15;101271.94;;;-3.13;93.02
63903;BME280;50072;50.678;13.938;2023-02-11T01:04:41;101252.25;;;-3.06;93.21
63903;BME280;50072;50.678;13.938;2023-02-11T01:07:08;101253.69;;;-3.12;93.23
63903;BME280;50072;50.678;13.938;2023-02-11T01:09:37;101241.66;;;-3.08;92.75
63903;BME280;50072;50.678;13.938;2023-02-11T01:12:02;101247.00;;;-3.06;93.07
63903;BME280;50072;50.678;13.938;2023-02-11T01:14:28;101246.25;;;-3.04;93.84
63903;BME280;50072;50.678;13.938;2023-02-11T01:16:54;101245.28;;;-3.06;93.14
63903;BME280;50072;50.678;13.938;2023-02-11T01:19:20;101238.13;;;-3.08;93.21
63903;BME280;50072;50.678;13.938;2023-02-11T01:21:45;101242.66;;;-3.06;93.00
63903;BME280;50072;50.678;13.938;2023-02-11T01:24:12;101229.63;;;-3.04;93.02
63903;BME280;50072;50.678;13.938;2023-02-11T01:26:38;101219.88;;;-3.07;93.24
63903;BME280;50072;50.678;13.938;2023-02-11T01:29:04;101215.78;;;-3.18;92.94
63903;BME280;50072;50.678;13.938;2023-02-11T01:31:30;101214.72;;;-3.05;93.15
63903;BME280;50072;50.678;13.938;2023-02-11T01:33:57;101208.94;;;-3.00;92.63
63903;BME280;50072;50.678;13.938;2023-02-11T01:36:22;101196.91;;;-2.96;92.51
63903;BME280;50072;50.678;13.938;2023-02-11T01:38:49;101202.63;;;-3.03;92.31
63903;BME280;50072;50.678;13.938;2023-02-11T01:41:15;101188.13;;;-3.13;91.98
63903;BME280;50072;50.678;13.938;2023-02-11T01:43:44;101191.25;;;-3.04;92.34
63903;BME280;50072;50.678;13.938;2023-02-11T01:46:33;101189.72;;;-3.00;92.46
63903;BME280;50072;50.678;13.938;2023-02-11T01:49:24;101199.09;;;-3.04;92.39
63903;BME280;50072;50.678;13.938;2023-02-11T01:52:28;101192.41;;;-2.99;92.38
63903;BME280;50072;50.678;13.938;2023-02-11T01:55:06;101195.19;;;-2.96;92.21
63903;BME280;50072;50.678;13.938;2023-02-11T01:57:53;101200.75;;;-3.06;91.96
63903;BME280;50072;50.678;13.938;2023-02-11T02:00:38;101213.53;;;-2.96;92.76
63903;BME280;50072;50.678;13.938;2023-02-11T02:03:18;101218.91;;;-2.92;92.65
63903;BME280;50072;50.678;13.938;2023-02-11T02:06:13;101206.81;;;-2.90;93.00
63903;BME280;50072;50.678;13.938;2023-02-11T02:11:09;101201.22;;;-2.97;92.83
63903;BME280;50072;50.678;13.938;2023-02-11T02:13:37;101201.44;;;-2.93;92.91
63903;BME280;50072;50.678;13.938;2023-02-11T02:16:15;101192.47;;;-2.97;92.88
63903;BME280;50072;50.678;13.938;2023-02-11T02:19:09;101187.84;;;-2.86;92.79
63903;BME280;50072;50.678;13.938;2023-02-11T02:27:21;101153.34;;;-2.78;91.64
63903;BME280;50072;50.678;13.938;2023-02-11T02:33:13;101162.41;;;-2.71;91.56
63903;BME280;50072;50.678;13.938;2023-02-11T02:35:50;101152.84;;;-2.70;91.12
63903;BME280;50072;50.678;13.938;2023-02-11T02:40:56;101153.09;;;-2.82;91.64
63903;BME280;50072;50.678;13.938;2023-02-11T02:43:26;101150.16;;;-2.72;91.73
63903;BME280;50072;50.678;13.938;2023-02-11T02:45:52;101149.25;;;-2.72;91.62
63903;BME280;50072;50.678;13.938;2023-02-11T02:48:26;101142.59;;;-2.66;91.16
63903;BME280;50072;50.678;13.938;2023-02-11T02:53:47;101151.47;;;-2.64;91.54
63903;BME280;50072;50.678;13.938;2023-02-11T02:56:22;101143.91;;;-2.57;91.42
63903;BME280;50072;50.678;13.938;2023-02-11T03:07:10;101138.63;;;-2.41;91.60
63903;BME280;50072;50.678;13.938;2023-02-11T03:12:33;101133.03;;;-2.13;90.62
63903;BME280;50072;50.678;13.938;2023-02-11T03:15:01;101128.25;;;-2.21;90.13
63903;BME280;50072;50.678;13.938;2023-02-11T03:17:29;101128.97;;;-2.42;90.95
63903;BME280;50072;50.678;13.938;2023-02-11T03:19:57;101118.00;;;-2.51;91.18
63903;BME280;50072;50.678;13.938;2023-02-11T03:22:28;101112.63;;;-2.54;91.89
63903;BME280;50072;50.678;13.938;2023-02-11T03:24:57;101109.63;;;-2.44;91.81
63903;BME280;50072;50.678;13.938;2023-02-11T03:27:40;101121.88;;;-2.27;91.60
63903;BME280;50072;50.678;13.938;2023-02-11T03:30:27;101123.41;;;-2.14;90.60
63903;BME280;50072;50.678;13.938;2023-02-11T03:33:01;101106.00;;;-2.12;90.40
63903;BME280;50072;50.678;13.938;2023-02-11T03:35:38;101107.56;;;-2.15;90.59
63903;BME280;50072;50.678;13.938;2023-02-11T03:38:28;101105.59;;;-2.37;91.31
63903;BME280;50072;50.678;13.938;2023-02-11T03:40:57;101101.06;;;-2.23;91.48
63903;BME280;50072;50.678;13.938;2023-02-11T03:43:33;101118.38;;;-2.09;91.34
63903;BME280;50072;50.678;13.938;2023-02-11T03:46:01;101113.41;;;-2.03;91.30
63903;BME280;50072;50.678;13.938;2023-02-11T03:48:34;101117.94;;;-2.00;91.71
63903;BME280;50072;50.678;13.938;2023-02-11T03:51:05;101106.16;;;-1.91;91.76
63903;BME280;50072;50.678;13.938;2023-02-11T03:53:32;101107.25;;;-1.85;91.54
63903;BME280;50072;50.678;13.938;2023-02-11T03:56:02;101104.28;;;-1.75;91.28
63903;BME280;50072;50.678;13.938;2023-02-11T03:58:29;101095.41;;;-1.77;90.81
63903;BME280;50072;50.678;13.938;2023-02-11T04:00:55;101083.22;;;-1.77;91.11
63903;BME280;50072;50.678;13.938;2023-02-11T04:03:21;101076.38;;;-1.91;90.77
63903;BME280;50072;50.678;13.938;2023-02-11T04:05:47;101063.81;;;-2.16;91.41
63903;BME280;50072;50.678;13.938;2023-02-11T04:08:12;101066.44;;;-2.34;92.66
63903;BME280;50072;50.678;13.938;2023-02-11T04:10:38;101070.63;;;-2.38;92.52
63903;BME280;50072;50.678;13.938;2023-02-11T04:13:04;101070.78;;;-2.35;93.27
63903;BME280;50072;50.678;13.938;2023-02-11T04:15:30;101049.13;;;-2.31;93.48
63903;BME280;50072;50.678;13.938;2023-02-11T04:17:56;101043.38;;;-2.23;93.34
63903;BME280;50072;50.678;13.938;2023-02-11T04:20:21;101039.91;;;-2.22;93.47
63903;BME280;50072;50.678;13.938;2023-02-11T04:22:47;101035.84;;;-2.16;93.48
63903;BME280;50072;50.678;13.938;2023-02-11T04:25:13;101031.88;;;-2.08;93.06
63903;BME280;50072;50.678;13.938;2023-02-11T04:27:39;101023.63;;;-2.15;92.41
63903;BME280;50072;50.678;13.938;2023-02-11T04:30:06;101032.63;;;-2.10;92.17
63903;BME280;50072;50.678;13.938;2023-02-11T04:32:33;101026.44;;;-2.12;92.56
63903;BME280;50072;50.678;13.938;2023-02-11T04:34:59;101035.94;;;-2.14;92.35
63903;BME280;50072;50.678;13.938;2023-02-11T04:37:24;101051.97;;;-2.08;92.92
63903;BME280;50072;50.678;13.938;2023-02-11T04:39:50;101035.84;;;-1.98;92.85
63903;BME280;50072;50.678;13.938;2023-02-11T04:42:16;101041.91;;;-1.81;92.34
63903;BME280;50072;50.678;13.938;2023-02-11T04:44:42;101022.75;;;-1.78;91.87
63903;BME280;50072;50.678;13.938;2023-02-11T04:47:08;101040.19;;;-1.61;91.65
63903;BME280;50072;50.678;13.938;2023-02-11T04:49:34;101037.91;;;-1.53;91.26
63903;BME280;50072;50.678;13.938;2023-02-11T04:52:00;101027.63;;;-1.48;91.18
63903;BME280;50072;50.678;13.938;2023-02-11T04:54:26;101028.53;;;-1.48;90.95
63903;BME280;50072;50.678;13.938;2023-02-11T04:56:51;101026.78;;;-1.47;90.79
63903;BME280;50072;50.678;13.938;2023-02-11T04:59:19;101028.06;;;-1.39;90.77
63903;BME280;50072;50.678;13.938;2023-02-11T05:01:44;101032.81;;;-1.30;91.00
63903;BME280;50072;50.678;13.938;2023-02-11T05:04:11;101034.81;;;-1.25;90.60
63903;BME280;50072;50.678;13.938;2023-02-11T05:06:38;101045.19;;;-1.28;90.58
63903;BME280;50072;50.678;13.938;2023-02-11T05:09:04;101048.38;;;-1.15;90.80
63903;BME280;50072;50.678;13.938;2023-02-11T05:11:30;101045.59;;;-1.18;90.89
63903;BME280;50072;50.678;13.938;2023-02-11T05:13:56;101043.81;;;-1.19;91.35
63903;BME280;50072;50.678;13.938;2023-02-11T05:16:22;101045.75;;;-1.15;91.20
63903;BME280;50072;50.678;13.938;2023-02-11T05:18:48;101054.66;;;-1.12;90.65
63903;BME280;50072;50.678;13.938;2023-02-11T05:21:17;101048.22;;;-0.99;90.44
63903;BME280;50072;50.678;13.938;2023-02-11T05:23:44;101036.88;;;-0.98;90.58
63903;BME280;50072;50.678;13.938;2023-02-11T05:26:10;101037.94;;;-0.93;90.23
63903;BME280;50072;50.678;13.938;2023-02-11T05:31:05;101048.94;;;-1.23;90.43
63903;BME280;50072;50.678;13.938;2023-02-11T05:33:32;101054.38;;;-1.37;90.63
63903;BME280;50072;50.678;13.938;2023-02-11T05:35:59;101044.28;;;-1.48;91.87
63903;BME280;50072;50.678;13.938;2023-02-11T05:38:26;101045.31;;;-1.44;91.70
63903;BME280;50072;50.678;13.938;2023-02-11T05:40:52;101046.00;;;-1.48;91.72
63903;BME280;50072;50.678;13.938;2023-02-11T05:43:18;101052.47;;;-1.60;92.53
63903;BME280;50072;50.678;13.938;2023-02-11T05:45:43;101041.69;;;-1.66;93.11
63903;BME280;50072;50.678;13.938;2023-02-11T05:48:09;101035.56;;;-1.66;93.27
63903;BME280;50072;50.678;13.938;2023-02-11T05:50:35;101029.84;;;-1.58;92.87
63903;BME280;50072;50.678;13.938;2023-02-11T05:53:01;101031.72;;;-1.55;93.00
63903;BME280;50072;50.678;13.938;2023-02-11T05:55:26;101026.53;;;-1.53;92.98
63903;BME280;50072;50.678;13.938;2023-02-11T05:57:52;101021.28;;;-1.53;92.88
63903;BME280;50072;50.678;13.938;2023-02-11T06:00:18;101030.59;;;-1.41;92.86
63903;BME280;50072;50.678;13.938;2023-02-11T06:02:44;101013.03;;;-1.42;92.51
63903;BME280;50072;50.678;13.938;2023-02-11T06:05:11;101028.13;;;-1.37;92.33
63903;BME280;50072;50.678;13.938;2023-02-11T06:07:37;101018.66;;;-1.34;92.20
63903;BME280;50072;50.678;13.938;2023-02-11T06:10:03;101007.72;;;-1.43;92.56
63903;BME280;50072;50.678;13.938;2023-02-11T06:12:29;101010.16;;;-1.48;92.51
63903;BME280;50072;50.678;13.938;2023-02-11T06:14:55;101006.22;;;-1.38;92.70
63903;BME280;50072;50.678;13.938;2023-02-11T06:17:21;101007.72;;;-1.24;92.43
63903;BME280;50072;50.678;13.938;2023-02-11T06:19:50;101006.25;;;-1.17;91.67
63903;BME280;50072;50.678;13.938;2023-02-11T06:22:16;101007.94;;;-1.19;91.88
63903;BME280;50072;50.678;13.938;2023-02-11T06:24:45;101008.97;;;-1.15;91.84
63903;BME280;50072;50.678;13.938;2023-02-11T06:27:11;101008.19;;;-1.13;91.60
63903;BME280;50072;50.678;13.938;2023-02-11T06:29:36;101012.00;;;-1.06;91.44
63903;BME280;50072;50.678;13.938;2023-02-11T06:32:02;101009.50;;;-1.03;91.19
63903;BME280;50072;50.678;13.938;2023-02-11T06:34:28;101010.72;;;-0.95;91.50
63903;BME280;50072;50.678;13.938;2023-02-11T06:36:55;101013.22;;;-0.98;91.04
63903;BME280;50072;50.678;13.938;2023-02-11T06:39:21;101008.34;;;-0.89;90.68
63903;BME280;50072;50.678;13.938;2023-02-11T06:41:47;101004.38;;;-0.79;90.47
63903;BME280;50072;50.678;13.938;2023-02-11T06:44:13;101009.75;;;-0.76;90.63
63903;BME280;50072;50.678;13.938;2023-02-11T06:46:39;101018.00;;;-0.68;89.99
63903;BME280;50072;50.678;13.938;2023-02-11T06:49:04;101012.03;;;-0.64;89.64
63903;BME280;50072;50.678;13.938;2023-02-11T06:51:30;101027.94;;;-0.61;90.22
63903;BME280;50072;50.678;13.938;2023-02-11T06:53:56;101021.56;;;-0.66;90.21
63903;BME280;50072;50.678;13.938;2023-02-11T06:56:22;101023.56;;;-0.60;90.63
63903;BME280;50072;50.678;13.938;2023-02-11T06:58:55;101023.56;;;-0.60;90.64
63903;BME280;50072;50.678;13.938;2023-02-11T07:01:22;101020.16;;;-0.58;91.01
63903;BME280;50072;50.678;13.938;2023-02-11T07:03:49;101021.56;;;-0.45;90.33
63903;BME280;50072;50.678;13.938;2023-02-11T07:06:18;101018.44;;;-0.36;89.69
63903;BME280;50072;50.678;13.938;2023-02-11T07:08:45;101019.84;;;-0.44;89.80
63903;BME280;50072;50.678;13.938;2023-02-11T07:11:18;101015.22;;;-0.50;89.99
63903;BME280;50072;50.678;13.938;2023-02-11T07:13:46;101007.84;;;-0.59;90.84
63903;BME280;50072;50.678;13.938;2023-02-11T07:16:14;101016.72;;;-0.57;90.69
63903;BME280;50072;50.678;13.938;2023-02-11T07:18:40;101016.72;;;-0.57;90.44
63903;BME280;50072;50.678;13.938;2023-02-11T07:21:08;101008.59;;;-0.40;90.42
63903;BME280;50072;50.678;13.938;2023-02-11T07:23:35;101009.25;;;-0.25;89.94
63903;BME280;50072;50.678;13.938;2023-02-11T07:26:09;101003.84;;;-0.28;89.35
63903;BME280;50072;50.678;13.938;2023-02-11T07:28:36;101002.75;;;-0.33;89.33
63903;BME280;50072;50.678;13.938;2023-02-11T07:31:15;100997.31;;;-0.38;89.82
63903;BME280;50072;50.678;13.938;2023-02-11T07:33:41;100994.44;;;-0.44;90.42
63903;BME280;50072;50.678;13.938;2023-02-11T07:36:09;100988.59;;;-0.37;90.46
63903;BME280;50072;50.678;13.938;2023-02-11T07:38:36;100999.81;;;-0.20;90.01
63903;BME280;50072;50.678;13.938;2023-02-11T07:41:05;100995.75;;;-0.11;89.92
63903;BME280;50072;50.678;13.938;2023-02-11T07:43:31;100998.63;;;-0.05;89.50
63903;BME280;50072;50.678;13.938;2023-02-11T07:45:58;100997.25;;;0.05;89.53
63903;BME280;50072;50.678;13.938;2023-02-11T07:48:25;101008.19;;;0.15;89.25
63903;BME280;50072;50.678;13.938;2023-02-11T07:50:50;101004.59;;;0.36;88.64
63903;BME280;50072;50.678;13.938;2023-02-11T07:53:16;101011.47;;;0.57;87.82
63903;BME280;50072;50.678;13.938;2023-02-11T07:55:44;101008.59;;;0.73;87.53
63903;BME280;50072;50.678;13.938;2023-02-11T07:58:09;101004.75;;;0.89;86.97
63903;BME280;50072;50.678;13.938;2023-02-11T08:00:36;101003.44;;;1.02;87.12
63903;BME280;50072;50.678;13.938;2023-02-11T08:03:01;101002.00;;;1.10;86.71
63903;BME280;50072;50.678;13.938;2023-02-11T08:05:29;101001.78;;;1.30;86.61
63903;BME280;50072;50.678;13.938;2023-02-11T08:07:55;101001.44;;;1.46;85.52
63903;BME280;50072;50.678;13.938;2023-02-11T08:10:21;100997.59;;;1.64;85.46
63903;BME280;50072;50.678;13.938;2023-02-11T08:12:47;100987.75;;;1.85;84.31
63903;BME280;50072;50.678;13.938;2023-02-11T08:15:13;100989.56;;;2.15;83.99
63903;BME280;50072;50.678;13.938;2023-02-11T08:17:39;100998.22;;;2.40;83.13
63903;BME280;50072;50.678;13.938;2023-02-11T08:20:05;100988.31;;;2.63;82.48
63903;BME280;50072;50.678;13.938;2023-02-11T08:22:32;101002.00;;;2.80;81.67
63903;BME280;50072;50.678;13.938;2023-02-11T08:24:59;100980.16;;;2.87;81.90
63903;BME280;50072;50.678;13.938;2023-02-11T08:27:26;100979.66;;;3.01;81.45
63903;BME280;50072;50.678;13.938;2023-02-11T08:29:53;100978.34;;;3.18;80.77
63903;BME280;50072;50.678;13.938;2023-02-11T08:32:18;100978.78;;;3.35;80.30
63903;BME280;50072;50.678;13.938;2023-02-11T08:34:44;100979.03;;;3.46;79.81
63903;BME280;50072;50.678;13.938;2023-02-11T08:37:10;100990.56;;;3.48;78.97
63903;BME280;50072;50.678;13.938;2023-02-11T08:39:36;100996.66;;;3.44;79.10
63903;BME280;50072;50.678;13.938;2023-02-11T08:42:02;100992.13;;;3.40;79.74
63903;BME280;50072;50.678;13.938;2023-02-11T08:44:28;100991.66;;;3.56;79.39
63903;BME280;50072;50.678;13.938;2023-02-11T08:46:54;100986.44;;;3.59;78.47
63903;BME280;50072;50.678;13.938;2023-02-11T08:49:21;100985.63;;;3.62;78.32
63903;BME280;50072;50.678;13.938;2023-02-11T08:51:47;100977.97;;;3.74;77.95
63903;BME280;50072;50.678;13.938;2023-02-11T08:54:14;100980.47;;;3.68;78.42
63903;BME280;50072;50.678;13.938;2023-02-11T08:56:40;100982.63;;;3.86;77.85
63903;BME280;50072;50.678;13.938;2023-02-11T08:59:08;100975.94;;;4.01;77.12
63903;BME280;50072;50.678;13.938;2023-02-11T09:01:35;100982.69;;;4.27;76.94
63903;BME280;50072;50.678;13.938;2023-02-11T09:04:02;100974.00;;;4.35;76.39
63903;BME280;50072;50.678;13.938;2023-02-11T09:06:28;100971.22;;;4.28;75.78
63903;BME280;50072;50.678;13.938;2023-02-11T09:08:56;100975.00;;;4.40;76.54
63903;BME280;50072;50.678;13.938;2023-02-11T09:11:29;100976.94;;;4.48;76.51
63903;BME280;50072;50.678;13.938;2023-02-11T09:13:56;100973.03;;;4.72;76.16
63903;BME280;50072;50.678;13.938;2023-02-11T09:16:30;100984.06;;;4.95;76.34
63903;BME280;50072;50.678;13.938;2023-02-11T09:18:58;100981.28;;;5.36;74.47
63903;BME280;50072;50.678;13.938;2023-02-11T09:21:24;100994.22;;;5.18;74.18
63903;BME280;50072;50.678;13.938;2023-02-11T09:23:51;101002.66;;;4.97;75.18
63903;BME280;50072;50.678;13.938;2023-02-11T09:26:26;100998.13;;;4.91;75.30
63903;BME280;50072;50.678;13.938;2023-02-11T09:28:53;100995.16;;;4.74;75.91
63903;BME280;50072;50.678;13.938;2023-02-11T09:31:22;100997.94;;;4.80;76.26
63903;BME280;50072;50.678;13.938;2023-02-11T09:33:52;100999.47;;;5.15;75.35
63903;BME280;50072;50.678;13.938;2023-02-11T09:36:21;100995.09;;;5.17;74.66
63903;BME280;50072;50.678;13.938;2023-02-11T09:38:48;100997.25;;;5.40;74.45
63903;BME280;50072;50.678;13.938;2023-02-11T09:44:08;100976.69;;;5.81;72.88
63903;BME280;50072;50.678;13.938;2023-02-11T09:46:39;100986.59;;;5.90;72.49
63903;BME280;50072;50.678;13.938;2023-02-11T09:49:06;100987.50;;;5.92;72.53
63903;BME280;50072;50.678;13.938;2023-02-11T09:51:45;100994.69;;;5.98;72.85
63903;BME280;50072;50.678;13.938;2023-02-11T09:54:22;100991.31;;;6.10;72.68
63903;BME280;50072;50.678;13.938;2023-02-11T09:56:51;100997.53;;;6.09;72.48
63903;BME280;50072;50.678;13.938;2023-02-11T09:59:17;100990.97;;;5.88;72.94
63903;BME280;50072;50.678;13.938;2023-02-11T10:01:56;101005.81;;;5.75;73.62
63903;BME280;50072;50.678;13.938;2023-02-11T10:06:52;100994.34;;;5.26;74.95
63903;BME280;50072;50.678;13.938;2023-02-11T10:20:37;100978.66;;;5.38;76.03
63903;BME280;50072;50.678;13.938;2023-02-11T10:23:14;100970.94;;;5.53;75.72
63903;BME280;50072;50.678;13.938;2023-02-11T10:25:49;100973.72;;;5.61;75.66
63903;BME280;50072;50.678;13.938;2023-02-11T10:28:22;100959.75;;;5.73;75.47
63903;BME280;50072;50.678;13.938;2023-02-11T10:30:59;100956.22;;;5.74;75.01
63903;BME280;50072;50.678;13.938;2023-02-11T10:33:30;100950.09;;;5.80;74.81
63903;BME280;50072;50.678;13.938;2023-02-11T10:35:58;100952.97;;;5.94;74.41
63903;BME280;50072;50.678;13.938;2023-02-11T10:38:24;100944.28;;;6.04;74.10
63903;BME280;50072;50.678;13.938;2023-02-11T10:40:51;100937.00;;;5.92;74.84
63903;BME280;50072;50.678;13.938;2023-02-11T10:43:19;100939.91;;;6.08;74.33
63903;BME280;50072;50.678;13.938;2023-02-11T10:45:52;100941.09;;;6.31;73.97
63903;BME280;50072;50.678;13.938;2023-02-11T10:53:35;100928.28;;;7.67;69.79
63903;BME280;50072;50.678;13.938;2023-02-11T10:56:02;100937.28;;;7.87;67.96
63903;BME280;50072;50.678;13.938;2023-02-11T11:00:58;100956.38;;;7.29;70.26
63903;BME280;50072;50.678;13.938;2023-02-11T11:03:45;100945.34;;;6.89;71.42
63903;BME280;50072;50.678;13.938;2023-02-11T11:06:12;100940.75;;;6.76;72.26
63903;BME280;50072;50.678;13.938;2023-02-11T11:08:47;100937.81;;;6.51;73.10
63903;BME280;50072;50.678;13.938;2023-02-11T11:11:19;100940.25;;;6.34;73.99
63903;BME280;50072;50.678;13.938;2023-02-11T11:16:23;100920.69;;;6.27;74.23
63903;BME280;50072;50.678;13.938;2023-02-11T11:18:52;100929.53;;;6.26;74.72
63903;BME280;50072;50.678;13.938;2023-02-11T11:21:34;100916.91;;;6.10;75.51
63903;BME280;50072;50.678;13.938;2023-02-11T11:24:01;100922.22;;;6.10;76.04
63903;BME280;50072;50.678;13.938;2023-02-11T11:26:53;100930.19;;;6.10;75.85
63903;BME280;50072;50.678;13.938;2023-02-11T11:29:34;100921.41;;;6.17;75.83
63903;BME280;50072;50.678;13.938;2023-02-11T11:32:13;100928.66;;;6.26;75.67
63903;BME280;50072;50.678;13.938;2023-02-11T11:34:42;100930.38;;;6.24;75.85
63903;BME280;50072;50.678;13.938;2023-02-11T11:37:33;100923.28;;;6.24;75.84
63903;BME280;50072;50.678;13.938;2023-02-11T11:40:02;100938.34;;;6.22;76.00
63903;BME280;50072;50.678;13.938;2023-02-11T11:42:34;100925.94;;;6.24;76.17
63903;BME280;50072;50.678;13.938;2023-02-11T11:47:53;100914.34;;;6.16;75.88
63903;BME280;50072;50.678;13.938;2023-02-11T11:50:29;100912.53;;;6.13;76.44
63903;BME280;50072;50.678;13.938;2023-02-11T11:55:43;100910.13;;;6.33;76.87
63903;BME280;50072;50.678;13.938;2023-02-11T11:58:17;100916.50;;;6.48;76.35
63903;BME280;50072;50.678;13.938;2023-02-11T12:17:13;100907.84;;;7.70;71.79
63903;BME280;50072;50.678;13.938;2023-02-11T12:22:28;100927.56;;;7.97;71.47
63903;BME280;50072;50.678;13.938;2023-02-11T12:50:58;100915.22;;;8.19;70.48
63903;BME280;50072;50.678;13.938;2023-02-11T12:58:59;100913.91;;;7.46;73.59
63903;BME280;50072;50.678;13.938;2023-02-11T13:01:38;100914.75;;;7.45;74.21
63903;BME280;50072;50.678;13.938;2023-02-11T13:04:19;100913.06;;;7.52;74.14
63903;BME280;50072;50.678;13.938;2023-02-11T13:06:56;100899.84;;;7.67;74.11
63903;BME280;50072;50.678;13.938;2023-02-11T13:09:31;100896.22;;;7.59;73.71
63903;BME280;50072;50.678;13.938;2023-02-11T13:12:02;100900.69;;;7.60;73.68
63903;BME280;50072;50.678;13.938;2023-02-11T13:14:49;100903.25;;;7.48;74.63
63903;BME280;50072;50.678;13.938;2023-02-11T13:17:21;100900.69;;;7.63;74.41
63903;BME280;50072;50.678;13.938;2023-02-11T13:19:56;100894.44;;;7.59;73.83
63903;BME280;50072;50.678;13.938;2023-02-11T13:22:30;100897.16;;;7.61;74.28
63903;BME280;50072;50.678;13.938;2023-02-11T13:30:43;100892.00;;;7.95;72.88
63903;BME280;50072;50.678;13.938;2023-02-11T13:38:30;100893.00;;;8.11;71.90
63903;BME280;50072;50.678;13.938;2023-02-11T13:43:30;100898.91;;;7.65;73.55
63903;BME280;50072;50.678;13.938;2023-02-11T13:46:02;100898.06;;;7.68;73.70
63903;BME280;50072;50.678;13.938;2023-02-11T13:51:11;100897.78;;;7.32;75.04
63903;BME280;50072;50.678;13.938;2023-02-11T13:53:53;100887.25;;;7.46;74.29
63903;BME280;50072;50.678;13.938;2023-02-11T13:56:33;100892.72;;;7.69;73.53
63903;BME280;50072;50.678;13.938;2023-02-11T13:59:43;100883.00;;;7.74;72.87
63903;BME280;50072;50.678;13.938;2023-02-11T14:11:03;100881.41;;;8.04;72.17
63903;BME280;50072;50.678;13.938;2023-02-11T14:23:49;100868.63;;;7.48;74.62
63903;BME280;50072;50.678;13.938;2023-02-11T14:28:52;100875.72;;;7.42;74.78
63903;BME280;50072;50.678;13.938;2023-02-11T14:31:37;100876.59;;;7.48;74.82
63903;BME280;50072;50.678;13.938;2023-02-11T14:39:56;100896.81;;;7.21;75.60
63903;BME280;50072;50.678;13.938;2023-02-11T14:42:24;100898.59;;;7.19;76.07
63903;BME280;50072;50.678;13.938;2023-02-11T14:44:54;100895.94;;;7.20;76.01
63903;BME280;50072;50.678;13.938;2023-02-11T14:47:29;100884.44;;;7.26;75.84
63903;BME280;50072;50.678;13.938;2023-02-11T14:50:00;100896.88;;;7.24;75.80
63903;BME280;50072;50.678;13.938;2023-02-11T14:52:34;100886.16;;;7.21;75.81
63903;BME280;50072;50.678;13.938;2023-02-11T14:55:15;100886.97;;;7.09;76.61
63903;BME280;50072;50.678;13.938;2023-02-11T14:57:43;100900.25;;;7.07;76.50
63903;BME280;50072;50.678;13.938;2023-02-11T15:00:20;100890.50;;;7.08;76.88
63903;BME280;50072;50.678;13.938;2023-02-11T15:02:47;100900.97;;;6.91;77.35
63903;BME280;50072;50.678;13.938;2023-02-11T15:05:27;100902.78;;;6.95;77.81
63903;BME280;50072;50.678;13.938;2023-02-11T15:08:01;100917.75;;;6.84;78.62
63903;BME280;50072;50.678;13.938;2023-02-11T15:10:35;100915.09;;;6.84;78.13
63903;BME280;50072;50.678;13.938;2023-02-11T15:13:06;100900.97;;;6.89;78.06
63903;BME280;50072;50.678;13.938;2023-02-11T15:15:33;100909.84;;;6.87;78.41
63903;BME280;50072;50.678;13.938;2023-02-11T15:18:02;100906.19;;;6.76;79.11
63903;BME280;50072;50.678;13.938;2023-02-11T15:20:31;100916.75;;;6.71;79.57
63903;BME280;50072;50.678;13.938;2023-02-11T15:23:01;100899.84;;;6.64;80.26
63903;BME280;50072;50.678;13.938;2023-02-11T15:25:30;100888.31;;;6.65;79.94
63903;BME280;50072;50.678;13.938;2023-02-11T15:27:57;100888.38;;;6.70;80.00
63903;BME280;50072;50.678;13.938;2023-02-11T15:30:31;100883.78;;;6.56;80.72
63903;BME280;50072;50.678;13.938;2023-02-11T15:33:02;100886.44;;;6.56;80.65
63903;BME280;50072;50.678;13.938;2023-02-11T15:35:32;100887.25;;;6.48;80.95